Ames, New York
Current Conditions -  °F | °C
As of 9:15 AM on Tuesday 21 Oct 2014 (Local Time) from KNY0 Reporting Station
Overcast Overcast  
Wind Chill: 42°   Ceiling: 6000
Heat Index: 45°   Visibility: 10mi
Dew Point: 43°   Wind: 6mph
Humidity: 92%   Direction: 70°ENE
Pressure: 29.9"   Gusts: NA
Location:  42.8548°N, 74.5942°W
Report Text: KNY0 211315Z AUTO 07005KT 10SM SCT029 SCT044 OVC060 07/06 A2990 RMK AO2 T00720060
Loading
Personal Weather Stations






























Interactive Weather Map
Tropical Storm Tracking
New forecast layout! Learn more

10-Day Weather Forecast

Advertisements
Track Severe Weather on mobile